.
WxDataArchive / Data Records for 2011-03-14
2011-03-13 March 2011 2011-03-15

Data Records for Monday, 14 March 2011

Time	Temp	Chill	HIndex	Humid	Dewpt	 Wind 	HiWind	WindDir	Rain 	Barom 
-----	----	-----	------	-----	-----	------	------	-------	-----	----- 
00:00	35.0	35.0	35.0	68	25.5	0	2	270	0.00	30.407 
00:05	34.9	34.9	34.9	69	25.8	0	2	270	0.00	30.407 
00:10	34.7	34.7	34.7	69	25.6	0	2	270	0.00	30.407 
00:15	34.7	34.7	34.7	70	25.9	0	2	270	0.00	30.408 
00:20	34.6	34.6	34.6	70	25.8	0	2	270	0.00	30.408 
00:25	34.6	34.6	34.6	70	25.8	0	1	270	0.00	30.408 
00:30	34.4	34.4	34.4	70	25.6	0	3	270	0.00	30.409 
00:35	34.4	34.4	34.4	70	25.6	0	0	---	0.00	30.409 
00:40	34.1	34.1	34.1	71	25.7	0	2	270	0.00	30.409 
00:45	34.0	34.0	34.0	71	25.6	0	2	270	0.00	30.406 
00:50	33.7	33.7	33.7	71	25.3	0	1	270	0.00	30.406 
00:55	33.5	33.5	33.5	70	24.8	0	1	270	0.00	30.406 
01:00	33.4	33.4	33.4	71	25.0	0	1	270	0.00	30.406 
01:05	33.1	33.1	33.1	71	24.7	0	1	270	0.00	30.406 
01:10	32.9	32.9	32.9	71	24.5	0	1	270	0.00	30.406 
01:15	32.7	32.7	32.7	71	24.4	0	2	270	0.00	30.402 
01:20	32.5	32.5	32.5	71	24.2	0	0	---	0.00	30.402 
01:25	32.4	32.4	32.4	71	24.1	0	1	270	0.00	30.402 
01:30	32.2	32.2	32.2	71	23.9	0	0	---	0.00	30.401 
01:35	32.1	32.1	32.1	71	23.8	0	0	---	0.00	30.401 
01:40	31.8	31.8	31.8	71	23.5	0	0	---	0.00	30.401 
01:45	31.6	31.6	31.6	71	23.3	0	0	---	0.00	30.398 
01:50	31.5	31.5	31.5	71	23.2	0	0	---	0.00	30.398 
01:55	31.2	31.2	31.2	71	22.9	0	0	---	0.00	30.398 
02:00	30.9	30.9	30.9	72	23.0	0	0	---	0.00	30.404 
02:05	30.6	30.6	30.6	72	22.7	0	0	---	0.00	30.404 
02:10	30.4	30.4	30.4	72	22.5	0	0	---	0.00	30.404 
02:15	30.1	30.1	30.1	73	22.5	0	0	---	0.00	30.404 
02:20	30.0	30.0	30.0	73	22.4	0	0	---	0.00	30.404 
02:25	29.7	29.7	29.7	73	22.1	0	0	---	0.00	30.404 
02:30	29.4	29.4	29.4	74	22.2	0	0	---	0.00	30.408 
02:35	29.3	29.3	29.3	75	22.4	0	0	---	0.00	30.408 
02:40	29.1	29.1	29.1	76	22.5	0	0	---	0.00	30.408 
02:45	29.0	29.0	29.0	76	22.4	0	0	---	0.00	30.412 
02:50	28.8	28.8	28.8	77	22.5	0	0	---	0.00	30.412 
02:55	28.7	28.7	28.7	77	22.4	0	0	---	0.00	30.412 
03:00	28.5	28.5	28.5	77	22.2	0	0	---	0.00	30.411 
03:05	28.5	28.5	28.5	77	22.2	0	0	---	0.00	30.411 
03:10	28.4	28.4	28.4	77	22.1	0	0	---	0.00	30.411 
03:15	28.2	28.2	28.2	78	22.2	0	0	---	0.00	30.412 
03:20	28.1	28.1	28.1	78	22.1	0	0	---	0.00	30.412 
03:25	27.9	27.9	27.9	78	21.9	0	0	---	0.00	30.412 
03:30	27.9	27.9	27.9	78	21.9	0	0	---	0.00	30.415 
03:35	27.8	27.8	27.8	79	22.2	0	0	---	0.00	30.415 
03:40	27.8	27.8	27.8	79	22.2	0	0	---	0.00	30.415 
03:45	27.6	27.6	27.6	79	22.0	0	0	---	0.00	30.417 
03:50	27.6	27.6	27.6	79	22.0	0	0	---	0.00	30.417 
03:55	27.5	27.5	27.5	79	21.9	0	0	---	0.00	30.417 
04:00	27.3	27.3	27.3	79	21.7	0	0	---	0.00	30.417 
04:05	27.2	27.2	27.2	80	21.9	0	0	---	0.00	30.417 
04:10	27.2	27.2	27.2	80	21.9	0	0	---	0.00	30.417 
04:15	27.0	27.0	27.0	80	21.7	0	0	---	0.00	30.416 
04:20	27.0	27.0	27.0	80	21.7	0	0	---	0.00	30.416 
04:25	27.0	27.0	27.0	80	21.7	0	0	---	0.00	30.416 
04:30	26.9	26.9	26.9	80	21.6	0	0	---	0.00	30.409 
04:35	26.7	26.7	26.7	80	21.4	0	0	---	0.00	30.409 
04:40	26.7	26.7	26.7	81	21.7	0	0	---	0.00	30.409 
04:45	26.6	26.6	26.6	81	21.6	0	0	---	0.00	30.409 
04:50	26.6	26.6	26.6	81	21.6	0	0	---	0.00	30.409 
04:55	26.6	26.6	26.6	81	21.6	0	0	---	0.00	30.409 
05:00	26.6	26.6	26.6	81	21.6	0	0	---	0.00	30.401 
05:05	26.4	26.4	26.4	81	21.4	0	0	---	0.00	30.401 
05:10	26.4	26.4	26.4	82	21.7	0	0	---	0.00	30.401 
05:15	26.4	26.4	26.4	82	21.7	0	0	---	0.00	30.402 
05:20	26.4	26.4	26.4	82	21.7	0	0	---	0.00	30.402 
05:25	26.6	26.6	26.6	83	22.1	0	0	---	0.00	30.402 
05:30	26.9	26.9	26.9	84	22.7	0	1	270	0.00	30.400 
05:35	27.0	27.0	27.0	84	22.8	0	0	---	0.00	30.400 
05:40	27.2	27.2	27.2	84	23.0	0	1	270	0.00	30.400 
05:45	27.3	27.3	27.3	84	23.1	0	0	---	0.00	30.400 
05:50	27.5	27.5	27.5	84	23.3	0	2	270	0.00	30.400 
05:55	27.5	27.5	27.5	84	23.3	0	2	270	0.00	30.400 
06:00	27.6	27.6	27.6	84	23.4	0	0	---	0.00	30.399 
06:05	27.6	27.6	27.6	84	23.4	0	0	---	0.00	30.399 
06:10	27.6	27.6	27.6	84	23.4	0	1	270	0.00	30.399 
06:15	27.8	27.8	27.8	84	23.6	0	1	270	0.00	30.400 
06:20	27.8	27.8	27.8	84	23.6	0	1	270	0.00	30.400 
06:25	27.9	27.9	27.9	84	23.7	0	1	270	0.00	30.400 
06:30	27.9	27.9	27.9	84	23.7	0	0	---	0.00	30.411 
06:35	27.8	27.8	27.8	84	23.6	0	0	---	0.00	30.411 
06:40	27.8	27.8	27.8	84	23.6	0	0	---	0.00	30.411 
06:45	27.8	27.8	27.8	84	23.6	0	0	---	0.00	30.412 
06:50	27.6	27.6	27.6	84	23.4	0	0	---	0.00	30.412 
06:55	27.6	27.6	27.6	84	23.4	0	1	270	0.00	30.412 
07:00	27.5	27.5	27.5	84	23.3	0	0	---	0.00	30.414 
07:05	27.6	27.6	27.6	85	23.7	0	0	---	0.00	30.414 
07:10	27.6	27.6	27.6	85	23.7	0	1	270	0.00	30.414 
07:15	27.6	27.6	27.6	85	23.7	0	1	270	0.00	30.418 
07:20	27.5	27.5	27.5	85	23.6	0	1	270	0.00	30.418 
07:25	27.5	27.5	27.5	85	23.6	0	1	270	0.00	30.418 
07:30	27.5	27.5	27.5	85	23.6	0	1	270	0.00	30.418 
07:35	27.5	27.5	27.5	85	23.6	0	2	270	0.00	30.418 
07:40	27.5	27.5	27.5	85	23.6	0	1	270	0.00	30.418 
07:45	27.5	27.5	27.5	85	23.6	0	0	---	0.00	30.420 
07:50	27.5	27.5	27.5	85	23.6	0	1	270	0.00	30.420 
07:55	27.5	27.5	27.5	86	23.9	0	2	270	0.00	30.420 
08:00	27.6	27.6	27.6	86	24.0	0	3	112	0.00	30.425 
08:05	27.8	27.8	27.8	86	24.2	0	3	112	0.00	30.425 
08:10	27.9	27.9	27.9	86	24.3	0	3	112	0.00	30.425 
08:15	28.4	28.4	28.4	87	25.0	1	5	22	0.00	30.425 
08:20	28.8	28.8	28.8	87	25.4	1	5	90	0.00	30.425 
08:25	29.1	29.1	29.1	88	26.0	2	7	90	0.00	30.425 
08:30	29.4	29.4	29.4	88	26.3	3	10	112	0.00	30.431 
08:35	29.5	29.5	29.5	88	26.4	2	6	90	0.00	30.431 
08:40	29.7	29.7	29.7	88	26.6	2	9	112	0.00	30.431 
08:45	29.7	25.4	29.7	88	26.6	4	12	90	0.00	30.434 
08:50	29.7	25.4	29.7	89	26.9	4	9	90	0.00	30.434 
08:55	29.5	24.1	29.5	89	26.7	5	12	112	0.00	30.434 
09:00	29.7	29.7	29.7	89	26.9	3	8	90	0.00	30.437 
09:05	29.5	29.5	29.5	89	26.7	3	7	90	0.00	30.437 
09:10	29.5	25.2	29.5	89	26.7	4	7	90	0.00	30.437 
09:15	29.7	29.7	29.7	90	27.1	3	7	90	0.00	30.444 
09:20	29.8	25.5	29.8	90	27.2	4	11	112	0.00	30.444 
09:25	30.0	23.8	30.0	90	27.4	6	13	112	0.00	30.444 
09:30	30.1	24.0	30.1	90	27.5	6	14	90	0.00	30.448 
09:35	30.3	25.1	30.3	89	27.5	5	10	112	0.00	30.448 
09:40	30.3	25.1	30.3	89	27.5	5	10	90	0.00	30.448 
09:45	30.4	30.4	30.4	88	27.3	3	11	112	0.00	30.450 
09:50	30.6	25.4	30.6	88	27.5	5	14	90	0.00	30.450 
09:55	30.7	26.6	30.7	88	27.6	4	11	90	0.00	30.450 
10:00	30.7	25.5	30.7	87	27.3	5	11	90	0.00	30.449 
10:05	30.7	25.5	30.7	87	27.3	5	8	90	0.00	30.449 
10:10	30.9	25.8	30.9	86	27.2	5	10	112	0.00	30.449 
10:15	31.0	26.9	31.0	86	27.3	4	10	90	0.00	30.461 
10:20	31.2	31.2	31.2	86	27.5	3	7	112	0.00	30.461 
10:25	31.5	31.5	31.5	86	27.8	2	6	90	0.00	30.461 
10:30	31.6	27.6	31.6	85	27.6	4	10	90	0.00	30.462 
10:35	31.8	27.8	31.8	84	27.5	4	8	112	0.00	30.462 
10:40	32.4	28.5	32.4	84	28.1	4	9	90	0.00	30.462 
10:45	33.1	28.4	33.1	83	28.5	5	12	90	0.00	30.458 
10:50	34.0	29.4	34.0	81	28.8	5	9	112	0.00	30.458 
10:55	34.1	29.5	34.1	79	28.3	5	11	90	0.00	30.458 
11:00	34.7	30.2	34.7	77	28.2	5	10	90	0.00	30.453 
11:05	35.2	30.8	35.2	81	30.0	5	10	90	0.00	30.453 
11:10	35.9	35.9	35.9	76	29.1	3	10	90	0.00	30.453 
11:15	35.8	31.5	35.8	73	28.0	5	12	112	0.00	30.456 
11:20	35.2	30.8	35.2	75	28.1	5	12	112	0.00	30.456 
11:25	35.6	35.6	35.6	76	28.8	3	10	112	0.00	30.456 
11:30	35.9	30.9	35.9	71	27.4	6	13	112	0.00	30.444 
11:35	35.8	30.1	35.8	71	27.3	7	14	112	0.00	30.444 
11:40	36.0	31.8	36.0	72	27.9	5	10	112	0.00	30.444 
11:45	36.3	31.4	36.3	71	27.8	6	12	112	0.00	30.434 
11:50	36.3	30.7	36.3	70	27.5	7	13	112	0.00	30.434 
11:55	36.5	31.6	36.5	70	27.7	6	13	112	0.00	30.434 
12:00	36.8	31.3	36.8	69	27.6	7	14	112	0.00	30.428 
12:05	37.2	34.1	37.2	69	28.0	4	10	90	0.00	30.428 
12:10	37.0	31.5	37.0	68	27.4	7	15	90	0.00	30.428 
12:15	37.2	33.2	37.2	68	27.6	5	11	112	0.00	30.426 
12:20	37.5	34.4	37.5	67	27.6	4	13	112	0.00	30.426 
12:25	37.3	33.3	37.3	66	27.0	5	11	90	0.00	30.426 
12:30	37.0	32.9	37.0	67	27.1	5	13	90	0.00	30.426 
12:35	37.2	33.2	37.2	68	27.6	5	12	112	0.00	30.426 
12:40	37.0	32.9	37.0	68	27.4	5	10	90	0.00	30.426 
12:45	37.3	37.3	37.3	68	27.7	3	9	90	0.00	30.422 
12:50	37.8	34.8	37.8	66	27.5	4	11	90	0.00	30.422 
12:55	37.8	33.9	37.8	66	27.5	5	12	112	0.00	30.422 
13:00	37.6	34.5	37.6	67	27.7	4	11	90	0.00	30.421 
13:05	37.9	34.9	37.9	66	27.6	4	10	90	0.00	30.421 
13:10	38.2	35.2	38.2	66	27.9	4	10	90	0.00	30.421 
13:15	38.3	35.4	38.3	65	27.6	4	10	112	0.00	30.419 
13:20	38.3	35.4	38.3	64	27.2	4	9	90	0.00	30.419 
13:25	38.5	35.6	38.5	64	27.4	4	12	112	0.00	30.419 
13:30	38.6	34.8	38.6	65	27.9	5	14	90	0.00	30.414 
13:35	38.3	34.5	38.3	65	27.6	5	10	90	0.00	30.414 
13:40	38.6	35.7	38.6	64	27.5	4	9	112	0.00	30.414 
13:45	38.8	35.9	38.8	63	27.3	4	11	112	0.00	30.412 
13:50	38.8	35.9	38.8	65	28.1	4	12	90	0.00	30.412 
13:55	38.9	35.2	38.9	63	27.4	5	13	112	0.00	30.412 
14:00	38.8	35.1	38.8	64	27.7	5	7	112	0.00	30.412 
14:05	38.9	38.9	38.9	63	27.4	3	13	112	0.00	30.412 
14:10	38.8	35.1	38.8	63	27.3	5	12	112	0.00	30.412 
14:15	38.8	35.9	38.8	63	27.3	4	9	90	0.00	30.405 
14:20	38.8	35.1	38.8	63	27.3	5	12	90	0.00	30.405 
14:25	39.1	35.4	39.1	63	27.6	5	14	112	0.00	30.405 
14:30	38.8	34.3	38.8	64	27.7	6	12	90	0.00	30.397 
14:35	38.8	35.9	38.8	64	27.7	4	11	90	0.00	30.397 
14:40	39.1	39.1	39.1	64	28.0	3	9	90	0.00	30.397 
14:45	39.5	35.9	39.5	63	28.0	5	11	90	0.00	30.394 
14:50	39.3	35.7	39.3	63	27.8	5	10	112	0.00	30.394 
14:55	39.3	36.5	39.3	63	27.8	4	9	112	0.00	30.394 
15:00	39.8	39.8	39.8	63	28.2	2	6	90	0.00	30.381 
15:05	39.9	37.2	39.9	63	28.3	4	8	90	0.00	30.381 
15:10	40.1	36.6	40.1	62	28.1	5	10	112	0.00	30.381 
15:15	40.1	40.1	40.1	63	28.5	3	9	90	0.00	30.368 
15:20	40.1	37.4	40.1	62	28.1	4	9	90	0.00	30.368 
15:25	40.1	36.6	40.1	62	28.1	5	12	90	0.00	30.368 
15:30	40.2	36.0	40.2	61	27.8	6	11	90	0.00	30.354 
15:35	40.5	37.1	40.5	61	28.1	5	10	90	0.00	30.354 
15:40	40.5	37.9	40.5	61	28.1	4	12	112	0.00	30.354 
15:45	40.6	38.0	40.6	61	28.2	4	9	90	0.00	30.348 
15:50	40.8	38.2	40.8	61	28.4	4	13	90	0.00	30.348 
15:55	40.8	38.2	40.8	61	28.4	4	12	90	0.00	30.348 
16:00	40.8	37.4	40.8	61	28.4	5	12	112	0.00	30.337 
16:05	40.9	38.4	40.9	60	28.1	4	9	90	0.00	30.337 
16:10	41.3	38.8	41.3	60	28.5	4	13	90	0.00	30.337 
16:15	41.1	37.8	41.1	58	27.5	5	13	112	0.00	30.335 
16:20	41.1	38.6	41.1	61	28.7	4	10	90	0.00	30.335 
16:25	40.9	37.5	40.9	61	28.5	5	10	90	0.00	30.335 
16:30	41.1	37.8	41.1	60	28.3	5	12	90	0.00	30.331 
16:35	41.2	37.2	41.2	60	28.4	6	11	112	0.00	30.331 
16:40	40.9	38.4	40.9	61	28.5	4	11	90	0.00	30.331 
16:45	41.1	38.6	41.1	61	28.7	4	9	90	0.00	30.331 
16:50	41.1	37.1	41.1	60	28.3	6	13	90	0.00	30.331 
16:55	41.1	38.6	41.1	60	28.3	4	12	112	0.00	30.331 
17:00	41.1	38.6	41.1	61	28.7	4	9	90	0.00	30.327 
17:05	41.1	38.6	41.1	61	28.7	4	9	90	0.00	30.327 
17:10	41.3	38.8	41.3	59	28.1	4	12	90	0.00	30.327 
17:15	41.3	38.0	41.3	60	28.5	5	9	90	0.00	30.319 
17:20	41.3	38.8	41.3	60	28.5	4	11	90	0.00	30.319 
17:25	41.2	37.9	41.2	60	28.4	5	11	90	0.00	30.319 
17:30	41.1	38.6	41.1	60	28.3	4	10	112	0.00	30.320 
17:35	40.9	38.4	40.9	61	28.5	4	12	90	0.00	30.320 
17:40	40.9	37.5	40.9	61	28.5	5	10	90	0.00	30.320 
17:45	40.9	38.4	40.9	61	28.5	4	9	90	0.00	30.327 
17:50	40.9	38.4	40.9	61	28.5	4	9	112	0.00	30.327 
17:55	40.9	38.4	40.9	62	28.9	4	11	90	0.00	30.327 
18:00	40.8	38.2	40.8	61	28.4	4	10	112	0.00	30.326 
18:05	40.8	40.8	40.8	61	28.4	3	9	90	0.00	30.326 
18:10	40.6	38.0	40.6	61	28.2	4	9	90	0.00	30.326 
18:15	40.5	40.5	40.5	61	28.1	3	9	90	0.00	30.323 
18:20	40.5	40.5	40.5	61	28.1	3	9	90	0.00	30.323 
18:25	40.3	40.3	40.3	62	28.3	3	11	90	0.00	30.323 
18:30	40.2	36.7	40.2	61	27.8	5	10	90	0.00	30.321 
18:35	40.1	37.4	40.1	62	28.1	4	9	90	0.00	30.321 
18:40	40.1	40.1	40.1	62	28.1	3	9	90	0.00	30.321 
18:45	39.9	37.2	39.9	62	28.0	4	8	90	0.00	30.321 
18:50	39.8	36.2	39.8	62	27.9	5	10	90	0.00	30.321 
18:55	39.8	39.8	39.8	63	28.2	3	7	112	0.00	30.321 
19:00	39.6	39.6	39.6	63	28.1	2	5	90	0.00	30.331 
19:05	39.5	39.5	39.5	64	28.3	2	7	68	0.00	30.331 
19:10	39.3	36.5	39.3	63	27.8	4	10	90	0.00	30.331 
19:15	39.2	39.2	39.2	64	28.1	3	9	90	0.00	30.335 
19:20	39.1	39.1	39.1	65	28.3	2	4	112	0.00	30.335 
19:25	38.9	36.0	38.9	65	28.2	4	11	112	0.00	30.335 
19:30	38.6	38.6	38.6	66	28.2	2	6	90	0.00	30.324 
19:35	38.5	38.5	38.5	66	28.1	3	7	112	0.00	30.324 
19:40	38.3	38.3	38.3	67	28.3	3	9	90	0.00	30.324 
19:45	38.2	38.2	38.2	67	28.2	2	5	90	0.00	30.325 
19:50	38.0	38.0	38.0	68	28.4	2	5	90	0.00	30.325 
19:55	37.9	37.9	37.9	69	28.7	1	4	90	0.00	30.325 
20:00	37.8	37.8	37.8	69	28.6	2	4	90	0.00	30.331 
20:05	37.6	37.6	37.6	69	28.4	1	5	112	0.00	30.331 
20:10	37.5	37.5	37.5	69	28.3	1	5	112	0.00	30.331 
20:15	37.3	37.3	37.3	69	28.1	1	5	112	0.00	30.336 
20:20	37.3	37.3	37.3	70	28.4	1	4	112	0.00	30.336 
20:25	37.2	37.2	37.2	70	28.3	1	3	112	0.00	30.336 
20:30	37.0	37.0	37.0	70	28.1	0	2	112	0.00	30.345 
20:35	36.8	36.8	36.8	71	28.3	0	2	112	0.00	30.345 
20:40	36.6	36.6	36.6	72	28.4	0	3	112	0.00	30.345 
20:45	36.5	36.5	36.5	72	28.3	1	3	112	0.00	30.352 
20:50	36.5	36.5	36.5	73	28.7	1	7	112	0.00	30.352 
20:55	36.3	36.3	36.3	73	28.5	2	6	112	0.00	30.352 
21:00	36.3	36.3	36.3	73	28.5	1	3	112	0.00	30.350 
21:05	36.2	36.2	36.2	74	28.7	1	5	135	0.00	30.350 
21:10	36.0	36.0	36.0	74	28.5	1	2	68	0.00	30.350 
21:15	36.0	36.0	36.0	74	28.5	1	4	112	0.00	30.364 
21:20	35.9	35.9	35.9	74	28.4	1	6	112	0.00	30.364 
21:25	35.8	35.8	35.8	75	28.7	1	4	90	0.00	30.364 
21:30	35.6	35.6	35.6	75	28.5	2	6	112	0.00	30.357 
21:35	35.5	35.5	35.5	75	28.4	2	10	90	0.00	30.357 
21:40	35.5	35.5	35.5	76	28.7	2	9	112	0.00	30.357 
21:45	35.3	35.3	35.3	76	28.5	2	6	112	0.00	30.362 
21:50	35.0	35.0	35.0	77	28.5	2	5	90	0.00	30.362 
21:55	34.9	34.9	34.9	77	28.4	3	9	90	0.00	30.362 
22:00	34.7	34.7	34.7	77	28.2	2	11	90	0.00	30.353 
22:05	34.6	34.6	34.6	78	28.5	2	9	112	0.00	30.353 
22:10	34.4	34.4	34.4	78	28.3	2	7	90	0.00	30.353 
22:15	34.3	34.3	34.3	78	28.2	3	11	112	0.00	30.353 
22:20	34.1	34.1	34.1	79	28.3	3	8	90	0.00	30.353 
22:25	34.0	34.0	34.0	79	28.2	2	6	90	0.00	30.353 
22:30	33.7	33.7	33.7	79	27.9	2	7	90	0.00	30.352 
22:35	33.5	33.5	33.5	79	27.7	2	9	90	0.00	30.352 
22:40	33.2	33.2	33.2	79	27.4	3	7	135	0.00	30.352 
22:45	32.9	32.9	32.9	79	27.1	2	9	90	0.00	30.345 
22:50	32.8	32.8	32.8	79	27.0	3	11	112	0.00	30.345 
22:55	32.5	32.5	32.5	79	26.7	3	7	90	0.00	30.345 
23:00	32.4	32.4	32.4	79	26.6	2	9	90	0.00	30.341 
23:05	32.2	32.2	32.2	79	26.4	2	6	112	0.00	30.341 
23:10	32.1	32.1	32.1	78	26.0	3	13	90	0.00	30.341 
23:15	31.9	31.9	31.9	79	26.1	2	9	112	0.00	30.337 
23:20	31.8	26.8	31.8	77	25.4	5	15	112	0.00	30.337 
23:25	31.6	31.6	31.6	77	25.2	3	9	90	0.00	30.337 
23:30	31.5	31.5	31.5	77	25.1	2	6	90	0.00	30.336 
23:35	31.3	31.3	31.3	77	24.9	2	5	112	0.00	30.336 
23:40	31.3	31.3	31.3	77	24.9	2	7	112	0.00	30.336 
23:45	31.2	31.2	31.2	77	24.8	2	5	112	0.00	30.337 
23:50	31.0	31.0	31.0	77	24.7	2	7	90	0.00	30.337 
23:55	30.9	30.9	30.9	78	24.9	2	8	90	0.00	30.337 

CoCoRaHS
IN-AL-39
A2 Web Hosting
Creative Commons License
GoDaddy
search engine by freefind advanced

loaded 2018-11-14 00:01:45 • last modified 2010-11-18 10:43:29
Privacy PolicyDisclaimer
• wx.awcolley.com is powered by PmWiki v.2002016 •
• all content (unless otherwise noted) © 2018 A W Colley